createdAt,value
2019-03-12T00:00:38.554Z,2.85
2019-03-12T00:03:07.343Z,2.84
2019-03-12T00:05:36.110Z,2.82
2019-03-12T00:08:05.323Z,2.81
2019-03-12T00:10:34.119Z,2.77
2019-03-12T00:13:02.897Z,2.75
2019-03-12T00:15:31.737Z,2.73
2019-03-12T00:18:00.509Z,2.69
2019-03-12T00:20:29.443Z,2.67
2019-03-12T00:22:58.179Z,2.65
2019-03-12T00:25:26.966Z,2.61
2019-03-12T00:27:55.746Z,2.58
2019-03-12T00:30:24.566Z,2.57
2019-03-12T00:32:55.722Z,2.56
2019-03-12T00:35:22.200Z,2.56
2019-03-12T00:37:51.124Z,2.54
2019-03-12T00:40:19.942Z,2.55
2019-03-12T00:42:48.778Z,2.54
2019-03-12T00:45:17.534Z,2.55
2019-03-12T00:47:47.686Z,2.55
2019-03-12T00:50:16.537Z,2.56
2019-03-12T00:52:45.340Z,2.55
2019-03-12T00:55:14.126Z,2.56
2019-03-12T00:57:43.065Z,2.58
2019-03-12T01:00:13.464Z,2.58
2019-03-12T01:02:42.239Z,2.62
2019-03-12T01:05:11.068Z,2.62
2019-03-12T01:07:39.835Z,2.66
2019-03-12T01:10:10.036Z,2.67
2019-03-12T01:12:38.823Z,2.69
2019-03-12T01:15:08.151Z,2.70
2019-03-12T01:17:36.952Z,2.72
2019-03-12T01:20:06.786Z,2.73
2019-03-12T01:22:35.569Z,2.77
2019-03-12T01:25:04.438Z,2.79
2019-03-12T01:27:33.214Z,2.80
2019-03-12T01:30:02.000Z,2.82
2019-03-12T01:32:31.893Z,2.84
2019-03-12T01:35:00.687Z,2.84
2019-03-12T01:37:29.463Z,2.85
2019-03-12T01:39:58.299Z,2.86
2019-03-12T01:42:27.091Z,2.86
2019-03-12T01:44:55.863Z,2.83
2019-03-12T01:47:25.553Z,2.82
2019-03-12T01:49:56.215Z,2.82
2019-03-12T01:52:24.986Z,2.83
2019-03-12T01:54:53.763Z,2.85
2019-03-12T01:57:22.595Z,2.86
2019-03-12T01:59:51.384Z,2.87
2019-03-12T02:02:20.302Z,2.90
2019-03-12T02:04:49.089Z,2.90
2019-03-12T02:07:17.919Z,2.93
2019-03-12T02:09:46.786Z,2.93
2019-03-12T02:12:15.627Z,2.94
2019-03-12T02:14:44.511Z,2.94
2019-03-12T02:17:13.395Z,2.95
2019-03-12T02:19:42.226Z,2.95
2019-03-12T02:22:12.837Z,2.93
2019-03-12T02:24:52.002Z,2.92
2019-03-12T02:27:10.695Z,2.91
2019-03-12T02:29:39.514Z,2.90
2019-03-12T02:32:08.304Z,2.89
2019-03-12T02:34:37.862Z,2.87
2019-03-12T02:37:07.597Z,2.85
2019-03-12T02:39:37.007Z,2.83
2019-03-12T02:42:05.959Z,2.82
2019-03-12T02:44:34.769Z,2.81
2019-03-12T02:47:03.562Z,2.78
2019-03-12T02:49:33.276Z,2.78
2019-03-12T02:52:02.170Z,2.77
2019-03-12T02:54:30.954Z,2.79
2019-03-12T02:56:59.784Z,2.82
2019-03-12T02:59:28.563Z,2.84
2019-03-12T03:01:57.348Z,2.86
2019-03-12T03:04:26.252Z,2.89
2019-03-12T03:07:03.247Z,2.92
2019-03-12T03:09:32.060Z,2.94
2019-03-12T03:12:00.939Z,2.95
2019-03-12T03:14:35.557Z,2.96
2019-03-12T03:17:05.860Z,2.96
2019-03-12T03:19:34.640Z,2.94
2019-03-12T03:22:03.432Z,2.93
2019-03-12T03:24:32.204Z,2.92
2019-03-12T03:27:01.002Z,2.92
2019-03-12T03:29:29.926Z,2.93
2019-03-12T03:31:58.773Z,2.94
2019-03-12T03:34:30.729Z,2.96
2019-03-12T03:36:59.536Z,2.99
2019-03-12T03:39:28.325Z,3.03
2019-03-12T03:41:57.126Z,3.09
2019-03-12T03:44:25.939Z,3.15
2019-03-12T03:46:54.812Z,3.18
2019-03-12T03:49:23.691Z,3.21
2019-03-12T03:51:52.394Z,3.21
2019-03-12T03:54:21.257Z,3.22
2019-03-12T03:56:50.047Z,3.22
2019-03-12T03:59:18.837Z,3.22
2019-03-12T04:01:47.637Z,3.26
2019-03-12T04:04:16.434Z,3.28
2019-03-12T04:06:45.882Z,3.31
2019-03-12T04:09:14.673Z,3.36
2019-03-12T04:11:43.556Z,3.41
2019-03-12T04:14:12.346Z,3.45
2019-03-12T04:16:41.138Z,3.50
2019-03-12T04:19:09.975Z,3.55
2019-03-12T04:21:38.747Z,3.59
2019-03-12T04:24:07.611Z,3.63
2019-03-12T04:26:37.730Z,3.66
2019-03-12T04:29:08.315Z,3.68
2019-03-12T04:31:42.854Z,3.69
2019-03-12T04:34:19.027Z,3.72
2019-03-12T04:36:50.408Z,3.73
2019-03-12T04:39:19.672Z,3.73
2019-03-12T04:41:48.485Z,3.76
2019-03-12T04:44:17.396Z,3.77
2019-03-12T04:46:46.192Z,3.81
2019-03-12T04:49:17.399Z,3.85
2019-03-12T04:52:04.383Z,3.87
2019-03-12T04:54:37.859Z,3.88
2019-03-12T04:57:06.637Z,3.92
2019-03-12T04:59:36.430Z,3.92
2019-03-12T05:02:05.239Z,3.94
2019-03-12T05:04:34.039Z,3.96
2019-03-12T05:07:02.849Z,3.97
2019-03-12T05:09:31.651Z,3.98
2019-03-12T05:12:00.488Z,3.98
2019-03-12T05:14:32.363Z,3.98
2019-03-12T05:17:06.341Z,4.00
2019-03-12T05:19:35.144Z,4.01
2019-03-12T05:22:03.990Z,4.03
2019-03-12T05:24:32.756Z,4.04
2019-03-12T05:27:01.548Z,4.05
2019-03-12T05:29:30.375Z,4.07
2019-03-12T05:31:59.238Z,4.10
2019-03-12T05:34:28.063Z,4.13
2019-03-12T05:36:57.445Z,4.16
2019-03-12T05:39:26.226Z,4.19
2019-03-12T05:41:55.022Z,4.22
2019-03-12T05:44:30.393Z,4.25
2019-03-12T05:46:59.291Z,4.27
2019-03-12T05:49:28.090Z,4.29
2019-03-12T05:51:56.869Z,4.30
2019-03-12T05:54:25.650Z,4.33
2019-03-12T05:56:54.546Z,4.35
2019-03-12T05:59:23.306Z,4.37
2019-03-12T06:01:52.151Z,4.41
2019-03-12T06:04:20.996Z,4.43
2019-03-12T06:06:49.806Z,4.47
2019-03-12T06:09:29.659Z,4.49
2019-03-12T06:11:47.391Z,4.53
2019-03-12T06:14:16.173Z,4.57
2019-03-12T06:16:45.064Z,4.61
2019-03-12T06:19:13.828Z,4.66
2019-03-12T06:21:42.667Z,4.70
2019-03-12T06:24:11.431Z,4.75
2019-03-12T06:26:40.248Z,4.80
2019-03-12T06:29:09.104Z,4.84
2019-03-12T06:32:00.338Z,4.87
2019-03-12T06:34:37.439Z,4.91
2019-03-12T06:37:16.404Z,4.94
2019-03-12T06:39:51.692Z,4.94
2019-03-12T06:42:25.803Z,4.97
2019-03-12T06:44:59.955Z,5.01
2019-03-12T06:47:34.786Z,5.02
2019-03-12T06:50:08.666Z,5.04
2019-03-12T06:52:44.581Z,5.09
2019-03-12T06:55:24.806Z,5.11
2019-03-12T06:58:12.078Z,5.14
2019-03-12T07:00:46.012Z,5.18
2019-03-12T07:03:20.160Z,5.21
2019-03-12T07:05:56.117Z,5.25
2019-03-12T07:08:29.093Z,5.28
2019-03-12T07:12:02.875Z,5.29
2019-03-12T07:14:41.988Z,5.31
2019-03-12T07:18:13.975Z,5.35
2019-03-12T07:22:52.102Z,5.39
2019-03-12T07:25:32.103Z,5.42
2019-03-12T07:28:09.007Z,5.44
2019-03-12T07:31:44.103Z,5.50
2019-03-12T07:34:20.086Z,5.54
2019-03-12T07:36:54.025Z,5.58
2019-03-12T07:39:28.291Z,5.62
2019-03-12T07:42:02.136Z,5.68
2019-03-12T07:44:35.089Z,5.74
2019-03-12T07:47:11.156Z,5.80
2019-03-12T07:49:45.943Z,5.90
2019-03-12T07:52:21.767Z,5.98
2019-03-12T07:55:26.125Z,6.05
2019-03-12T07:59:02.592Z,6.16
2019-03-12T08:01:39.532Z,6.27
2019-03-12T08:04:13.579Z,6.34
2019-03-12T08:06:56.622Z,6.40
2019-03-12T08:11:35.593Z,6.46
2019-03-12T08:14:10.360Z,6.55
2019-03-12T08:17:16.818Z,6.60
2019-03-12T08:19:49.770Z,6.68
2019-03-12T08:22:24.689Z,6.75
2019-03-12T08:25:28.907Z,6.82
2019-03-12T08:28:07.925Z,6.90
2019-03-12T08:31:44.791Z,7.00
2019-03-12T08:35:16.634Z,7.11
2019-03-12T08:37:54.849Z,7.16
2019-03-12T08:40:28.872Z,7.19
2019-03-12T08:43:01.822Z,7.27
2019-03-12T08:45:36.629Z,7.30
2019-03-12T08:48:12.637Z,7.35
2019-03-12T08:50:51.773Z,7.39
2019-03-12T08:53:25.262Z,7.43
2019-03-12T08:56:03.063Z,7.50
2019-03-12T08:59:41.923Z,7.55
2019-03-12T09:02:16.133Z,7.59
2019-03-12T09:06:53.006Z,7.66
2019-03-12T09:09:27.654Z,7.78
2019-03-12T09:12:18.877Z,7.89
2019-03-12T09:14:52.775Z,8.00
2019-03-12T09:17:28.720Z,8.15
2019-03-12T09:20:17.902Z,8.29
2019-03-12T09:22:53.951Z,8.38
2019-03-12T09:25:33.990Z,8.46
2019-03-12T09:28:10.111Z,8.57
2019-03-12T09:30:44.268Z,8.69
2019-03-12T09:33:19.079Z,8.76
2019-03-12T09:35:52.035Z,8.88
2019-03-12T09:38:27.062Z,8.96
2019-03-12T09:41:01.925Z,9.10
2019-03-12T09:45:38.780Z,9.22
2019-03-12T09:48:17.640Z,9.55
2019-03-12T09:50:50.605Z,9.73
2019-03-12T09:53:24.555Z,9.94
2019-03-12T09:55:57.520Z,10.18
2019-03-12T09:58:34.351Z,10.33
2019-03-12T10:01:40.955Z,10.46
2019-03-12T10:04:14.106Z,10.56
2019-03-12T10:06:53.060Z,10.64
2019-03-12T10:10:25.974Z,10.67
2019-03-12T10:13:00.154Z,10.77
2019-03-12T10:15:33.101Z,10.83
2019-03-12T10:18:10.020Z,10.91
2019-03-12T10:20:45.977Z,10.98
2019-03-12T10:23:23.957Z,10.95
2019-03-12T10:26:57.993Z,11.03
2019-03-12T10:29:35.051Z,11.16
2019-03-12T10:32:10.232Z,11.20
2019-03-12T10:35:16.070Z,11.13
2019-03-12T10:37:49.931Z,11.08
2019-03-12T10:40:27.723Z,10.95
2019-03-12T10:43:06.047Z,10.97
2019-03-12T10:46:41.841Z,11.12
2019-03-12T10:49:10.665Z,11.06
2019-03-12T10:51:39.452Z,10.98
2019-03-12T10:54:08.251Z,10.91
2019-03-12T10:56:37.084Z,10.92
2019-03-12T10:59:05.881Z,10.96
2019-03-12T11:01:35.450Z,10.84
2019-03-12T11:04:04.936Z,10.78
2019-03-12T11:06:34.655Z,10.91
2019-03-12T11:09:06.015Z,11.05
2019-03-12T11:11:34.800Z,11.16
2019-03-12T11:14:03.600Z,11.26
2019-03-12T11:16:32.408Z,11.34
2019-03-12T11:19:01.193Z,11.47
2019-03-12T11:21:30.071Z,11.57
2019-03-12T11:23:59.924Z,11.69
2019-03-12T11:26:29.712Z,11.80
2019-03-12T11:28:58.551Z,11.78
2019-03-12T11:31:27.327Z,11.85
2019-03-12T11:33:56.108Z,11.89
2019-03-12T11:36:24.931Z,11.99
2019-03-12T11:38:53.938Z,12.06
2019-03-12T11:41:22.662Z,12.09
2019-03-12T11:43:51.453Z,12.14
2019-03-12T11:46:21.152Z,12.19
2019-03-12T11:48:49.905Z,12.18
2019-03-12T11:51:18.862Z,12.16
2019-03-12T11:53:47.923Z,12.11
2019-03-12T11:56:16.502Z,12.13
2019-03-12T11:58:45.378Z,12.05
2019-03-12T12:01:14.312Z,12.01
2019-03-12T12:03:43.115Z,11.93
2019-03-12T12:06:11.940Z,11.97
2019-03-12T12:08:40.759Z,12.02
2019-03-12T12:11:09.587Z,11.95
2019-03-12T12:13:38.385Z,11.92
2019-03-12T12:16:07.213Z,11.93
2019-03-12T12:18:35.983Z,11.96
2019-03-12T12:21:05.255Z,11.97
2019-03-12T12:23:34.041Z,11.96
2019-03-12T12:26:02.829Z,11.92
2019-03-12T12:28:31.668Z,11.90
2019-03-12T12:31:01.487Z,11.93
2019-03-12T12:33:31.024Z,11.97
2019-03-12T12:35:59.867Z,12.04
2019-03-12T12:38:28.655Z,12.11
2019-03-12T12:40:58.184Z,12.22
2019-03-12T12:43:26.971Z,12.29
2019-03-12T12:45:55.758Z,12.38
2019-03-12T12:48:24.567Z,12.39
2019-03-12T12:51:02.977Z,12.49
2019-03-12T12:53:22.151Z,12.57
2019-03-12T12:55:50.927Z,12.58
2019-03-12T12:58:19.723Z,12.57
2019-03-12T13:00:48.546Z,12.54
2019-03-12T13:03:17.318Z,12.42
2019-03-12T13:05:46.118Z,12.34
2019-03-12T13:08:14.951Z,12.22
2019-03-12T13:10:43.797Z,12.05
2019-03-12T13:13:12.578Z,11.90
2019-03-12T13:15:42.447Z,11.76
2019-03-12T13:18:11.365Z,11.68
2019-03-12T13:20:40.166Z,11.62
2019-03-12T13:23:09.037Z,11.54
2019-03-12T13:25:37.833Z,11.46
2019-03-12T13:28:07.444Z,11.38
2019-03-12T13:30:36.305Z,11.31
2019-03-12T13:33:05.093Z,11.23
2019-03-12T13:35:33.965Z,11.13
2019-03-12T13:38:02.768Z,11.02
2019-03-12T13:40:32.006Z,10.95
2019-03-12T13:43:00.769Z,10.93
2019-03-12T13:45:29.608Z,10.92
2019-03-12T13:48:02.706Z,10.89
2019-03-12T13:50:30.953Z,10.87
2019-03-12T13:52:59.737Z,10.89
2019-03-12T13:55:29.527Z,10.86
2019-03-12T13:57:58.305Z,10.85
2019-03-12T14:00:29.338Z,10.83
2019-03-12T14:02:58.146Z,10.82
2019-03-12T14:05:27.915Z,10.84
2019-03-12T14:07:56.714Z,10.86
2019-03-12T14:10:25.552Z,10.84
2019-03-12T14:12:54.591Z,10.85
2019-03-12T14:15:25.790Z,10.84
2019-03-12T14:17:54.585Z,10.83
2019-03-12T14:20:37.180Z,10.83
2019-03-12T14:23:06.092Z,10.81
2019-03-12T14:25:35.120Z,10.82
2019-03-12T14:28:03.929Z,10.82
2019-03-12T14:30:32.831Z,10.83
2019-03-12T14:33:01.640Z,10.82
2019-03-12T14:35:30.445Z,10.85
2019-03-12T14:37:59.319Z,10.81
2019-03-12T14:40:28.740Z,10.80
2019-03-12T14:42:57.553Z,10.83
2019-03-12T14:45:28.080Z,10.82
2019-03-12T14:47:57.003Z,10.81
2019-03-12T14:50:25.810Z,10.81
2019-03-12T14:52:58.487Z,10.77
2019-03-12T14:55:28.451Z,10.73
2019-03-12T14:58:00.659Z,10.71
2019-03-12T15:00:32.989Z,10.67
2019-03-12T15:03:12.830Z,10.66
2019-03-12T15:05:47.568Z,10.62
2019-03-12T15:08:16.476Z,10.58
2019-03-12T15:10:45.432Z,10.54
2019-03-12T15:13:16.671Z,10.51
2019-03-12T15:15:48.216Z,10.50
2019-03-12T15:18:21.258Z,10.46
2019-03-12T15:20:50.939Z,10.46
2019-03-12T15:23:21.319Z,10.47
2019-03-12T15:29:04.130Z,10.44
2019-03-12T15:31:32.959Z,10.39
2019-03-12T15:34:01.765Z,10.37
2019-03-12T15:36:33.641Z,10.34
2019-03-12T15:39:02.406Z,10.31
2019-03-12T15:41:31.203Z,10.28
2019-03-12T15:43:59.985Z,10.24
2019-03-12T15:46:28.773Z,10.22
2019-03-12T15:48:57.682Z,10.21
2019-03-12T15:51:26.475Z,10.20
2019-03-12T15:53:55.257Z,10.19
2019-03-12T15:56:24.179Z,10.16
2019-03-12T15:58:52.992Z,10.13
2019-03-12T16:01:21.827Z,10.11
2019-03-12T16:03:50.639Z,10.11
2019-03-12T16:06:19.519Z,10.11
2019-03-12T16:08:48.340Z,10.08
2019-03-12T16:11:17.136Z,10.10
2019-03-12T16:13:45.956Z,10.10
2019-03-12T16:16:14.773Z,10.09
2019-03-12T16:18:43.747Z,10.10
2019-03-12T16:21:13.352Z,10.08
2019-03-12T16:23:43.043Z,10.08
2019-03-12T16:26:11.863Z,10.06
2019-03-12T16:28:40.690Z,10.04
2019-03-12T16:31:09.508Z,10.03
2019-03-12T16:33:38.398Z,10.02
2019-03-12T16:36:07.265Z,9.99
2019-03-12T16:38:36.061Z,9.98
2019-03-12T16:41:05.474Z,9.95
2019-03-12T16:43:34.285Z,9.93
2019-03-12T16:46:03.087Z,9.93
2019-03-12T16:48:31.973Z,9.93
2019-03-12T16:51:01.689Z,9.91
2019-03-12T16:53:30.463Z,9.89
2019-03-12T16:55:59.259Z,9.87
2019-03-12T16:58:28.074Z,9.86
2019-03-12T17:00:56.898Z,9.84
2019-03-12T17:03:25.717Z,9.81
2019-03-12T17:05:54.531Z,9.79
2019-03-12T17:08:23.315Z,9.77
2019-03-12T17:11:02.625Z,9.76
2019-03-12T17:13:28.129Z,9.76
2019-03-12T17:15:57.314Z,9.76
2019-03-12T17:18:27.250Z,9.76
2019-03-12T17:20:57.066Z,9.75
2019-03-12T17:23:25.963Z,9.73
2019-03-12T17:25:55.481Z,9.72
2019-03-12T17:28:24.346Z,9.71
2019-03-12T17:30:53.171Z,9.69
2019-03-12T17:33:21.960Z,9.69
2019-03-12T17:35:52.116Z,9.69
2019-03-12T17:38:20.884Z,9.69
2019-03-12T17:40:49.659Z,9.68
2019-03-12T17:43:18.579Z,9.69
2019-03-12T17:45:47.361Z,9.68
2019-03-12T17:48:16.146Z,9.67
2019-03-12T17:50:46.129Z,9.67
2019-03-12T17:53:14.903Z,9.67
2019-03-12T17:55:43.742Z,9.67
2019-03-12T17:58:12.569Z,9.67
2019-03-12T18:00:43.108Z,9.67
2019-03-12T18:03:11.899Z,9.67
2019-03-12T18:05:41.548Z,9.67
2019-03-12T18:08:10.368Z,9.68
2019-03-12T18:10:39.167Z,9.68
2019-03-12T18:13:07.948Z,9.69
2019-03-12T18:15:36.859Z,9.69
2019-03-12T18:18:05.879Z,9.68
2019-03-12T18:20:34.675Z,9.67
2019-03-12T18:23:03.470Z,9.64
2019-03-12T18:25:32.487Z,9.58
2019-03-12T18:28:01.362Z,9.51
2019-03-12T18:30:30.215Z,9.42
2019-03-12T18:32:59.116Z,9.33
2019-03-12T18:35:27.998Z,9.24
2019-03-12T18:37:57.430Z,9.19
2019-03-12T18:40:26.253Z,9.17
2019-03-12T18:42:55.055Z,9.14
2019-03-12T18:45:23.855Z,9.10
2019-03-12T18:47:52.783Z,9.08
2019-03-12T18:50:21.687Z,9.08
2019-03-12T18:52:50.503Z,9.08
2019-03-12T18:55:29.671Z,9.07
2019-03-12T18:57:58.459Z,9.04
2019-03-12T19:00:28.217Z,9.04
2019-03-12T19:02:57.059Z,9.01
2019-03-12T19:05:28.235Z,8.98
2019-03-12T19:07:55.183Z,8.95
2019-03-12T19:10:24.013Z,8.94
2019-03-12T19:12:52.877Z,8.92
2019-03-12T19:15:21.690Z,8.89
2019-03-12T19:17:50.570Z,8.84
2019-03-12T19:20:19.398Z,8.81
2019-03-12T19:22:48.312Z,8.78
2019-03-12T19:25:17.138Z,8.76
2019-03-12T19:27:58.829Z,8.75
2019-03-12T19:30:15.719Z,8.73
2019-03-12T19:32:49.800Z,8.70
2019-03-12T19:35:18.720Z,8.67
2019-03-12T19:37:47.520Z,8.67
2019-03-12T19:40:17.621Z,8.66
2019-03-12T19:42:46.497Z,8.65
2019-03-12T19:45:15.402Z,8.65
2019-03-12T19:47:44.272Z,8.62
2019-03-12T19:50:14.568Z,8.61
2019-03-12T19:52:43.360Z,8.58
2019-03-12T19:55:14.115Z,8.52
2019-03-12T19:57:43.006Z,8.38
2019-03-12T20:00:14.433Z,8.20
2019-03-12T20:02:43.399Z,7.97
2019-03-12T20:05:12.218Z,7.74
2019-03-12T20:07:41.683Z,7.65
2019-03-12T20:10:25.293Z,7.56
2019-03-12T20:15:13.145Z,7.46
2019-03-12T20:19:01.748Z,7.32
2019-03-12T20:21:52.397Z,7.22
2019-03-12T20:26:36.075Z,7.15
2019-03-12T20:29:50.087Z,6.93
2019-03-12T20:32:30.365Z,6.76
2019-03-12T20:35:13.267Z,6.64
2019-03-12T20:40:00.171Z,6.59
2019-03-12T20:44:42.983Z,6.45
2019-03-12T20:47:23.307Z,6.29
2019-03-12T20:50:03.850Z,6.23
2019-03-12T20:55:07.248Z,6.23
2019-03-12T20:57:46.143Z,6.18
2019-03-12T21:00:36.213Z,6.17
2019-03-12T21:03:17.949Z,6.16
2019-03-12T21:06:02.160Z,6.16
2019-03-12T21:10:44.974Z,6.14
2019-03-12T21:14:01.286Z,6.12
2019-03-12T21:16:40.193Z,6.10
2019-03-12T21:21:23.116Z,6.09
2019-03-12T21:24:03.840Z,5.98
2019-03-12T21:26:53.544Z,5.96
2019-03-12T21:29:45.634Z,5.97
2019-03-12T21:32:15.220Z,5.96
2019-03-12T21:34:44.113Z,5.96
2019-03-12T21:37:13.398Z,5.99
2019-03-12T21:39:54.494Z,5.99
2019-03-12T21:42:10.965Z,5.99
2019-03-12T21:44:39.801Z,5.99
2019-03-12T21:47:08.588Z,5.97
2019-03-12T21:49:37.369Z,5.96
2019-03-12T21:52:07.903Z,5.95
2019-03-12T21:54:36.983Z,5.95
2019-03-12T21:57:05.795Z,5.94
2019-03-12T21:59:34.589Z,5.93
2019-03-12T22:02:03.472Z,5.95
2019-03-12T22:04:32.278Z,5.94
2019-03-12T22:07:01.268Z,5.95
2019-03-12T22:09:30.018Z,5.96
2019-03-12T22:11:58.836Z,5.97
2019-03-12T22:14:27.637Z,5.96
2019-03-12T22:16:59.127Z,5.91
2019-03-12T22:19:27.956Z,5.90
2019-03-12T22:22:03.052Z,5.90
2019-03-12T22:24:31.939Z,5.91
2019-03-12T22:27:00.728Z,5.93
2019-03-12T22:29:29.520Z,5.91
2019-03-12T22:31:58.316Z,5.91
2019-03-12T22:34:30.014Z,5.93
2019-03-12T22:36:56.004Z,5.94
2019-03-12T22:39:24.793Z,5.97
2019-03-12T22:41:53.698Z,6.00
2019-03-12T22:44:22.406Z,6.02
2019-03-12T22:46:51.173Z,5.99
2019-03-12T22:49:20.032Z,5.90
2019-03-12T22:51:48.768Z,5.83
2019-03-12T22:54:17.545Z,5.75
2019-03-12T22:56:46.313Z,5.69
2019-03-12T22:59:15.108Z,5.65
2019-03-12T23:01:49.504Z,5.67
2019-03-12T23:04:23.989Z,5.68
2019-03-12T23:06:58.301Z,5.73
2019-03-12T23:09:32.847Z,5.77
2019-03-12T23:12:01.632Z,5.79
2019-03-12T23:14:30.415Z,5.82
2019-03-12T23:16:59.259Z,5.84
2019-03-12T23:19:28.049Z,5.85
2019-03-12T23:21:56.964Z,5.85
2019-03-12T23:24:25.822Z,5.86
2019-03-12T23:26:54.615Z,5.84
2019-03-12T23:29:23.387Z,5.83
2019-03-12T23:31:52.176Z,5.81
2019-03-12T23:34:20.970Z,5.81
2019-03-12T23:36:49.791Z,5.79
2019-03-12T23:39:18.667Z,5.80
2019-03-12T23:41:48.003Z,5.80
2019-03-12T23:44:16.801Z,5.78
2019-03-12T23:46:45.573Z,5.76
2019-03-12T23:49:14.355Z,5.72
2019-03-12T23:51:43.159Z,5.70
2019-03-12T23:54:11.945Z,5.68
2019-03-12T23:56:40.797Z,5.72
2019-03-12T23:59:09.612Z,5.76
